Time;durP1;ratioP1;P1;durP2;ratioP2;P2;SDS_P1;SDS_P2;PMS_P1;PMS_P2;Temp;Humidity;BMP_temperature;BMP_pressure;BME280_temperature;BME280_humidity;BME280_pressure;Samples;Min_cycle;Max_cycle;Signal;HPM_P1;HPM_P2
2022/07/13 00:01:35;;;;;;;5.22;1.30;;;18.30;73.50;;;;;;4896750;29;20060;-70
2022/07/13 00:04:00;;;;;;;2.05;1.33;;;18.20;73.50;;;;;;4898393;29;20036;-69
2022/07/13 00:06:26;;;;;;;1.25;1.15;;;18.30;72.80;;;;;;4894845;29;20028;-70
2022/07/13 00:08:52;;;;;;;1.35;1.25;;;18.40;72.70;;;;;;4898583;29;20668;-70
2022/07/13 00:11:17;;;;;;;1.27;1.17;;;18.50;72.40;;;;;;4896308;29;20032;-70
2022/07/13 00:13:43;;;;;;;1.98;1.20;;;18.50;72.10;;;;;;4896932;29;20111;-70
2022/07/13 00:16:09;;;;;;;1.63;1.50;;;18.60;71.90;;;;;;4897467;29;20025;-70
2022/07/13 00:18:35;;;;;;;2.37;1.20;;;18.70;71.40;;;;;;4897512;29;20549;-70
2022/07/13 00:21:00;;;;;;;2.20;1.27;;;18.70;71.40;;;;;;4897841;29;20252;-70
2022/07/13 00:23:26;;;;;;;1.30;1.20;;;18.60;71.40;;;;;;4897977;29;20042;-70
2022/07/13 00:25:52;;;;;;;2.60;1.30;;;18.50;71.60;;;;;;4898180;29;20013;-69
2022/07/13 00:28:17;;;;;;;1.67;1.15;;;18.50;71.80;;;;;;4893443;29;20040;-70
2022/07/13 00:30:43;;;;;;;3.75;1.20;;;18.60;71.70;;;;;;4896620;29;20095;-70
2022/07/13 00:33:09;;;;;;;1.60;1.27;;;18.60;71.40;;;;;;4897214;29;20478;-70
2022/07/13 00:35:35;;;;;;;1.45;0.95;;;18.60;71.40;;;;;;4896456;29;20078;-70
2022/07/13 00:38:01;;;;;;;3.80;1.50;;;18.70;71.00;;;;;;4898035;29;20699;-70
2022/07/13 00:40:27;;;;;;;1.58;1.17;;;18.70;71.30;;;;;;4894848;29;20265;-70
2022/07/13 00:42:52;;;;;;;1.45;1.25;;;18.70;71.00;;;;;;4893755;29;20055;-70
2022/07/13 00:45:19;;;;;;;2.90;1.10;;;18.70;71.10;;;;;;4897154;29;20358;-70
2022/07/13 00:47:45;;;;;;;;;;;18.80;71.00;;;;;;4898354;29;20730;-70
2022/07/13 00:50:11;;;;;;;2.45;1.10;;;18.70;70.90;;;;;;4895979;29;20672;-70
2022/07/13 00:52:37;;;;;;;1.08;1.00;;;18.80;70.90;;;;;;4900671;29;20028;-70
2022/07/13 00:55:06;;;;;;;1.35;1.20;;;18.70;70.80;;;;;;4900822;29;20024;-70
2022/07/13 00:57:36;;;;;;;1.33;1.23;;;18.80;70.90;;;;;;4900351;29;20024;-70
2022/07/13 01:00:08;;;;;;;1.13;1.10;;;18.80;70.80;;;;;;4902485;29;20832;-70
2022/07/13 01:02:38;;;;;;;1.25;1.10;;;18.80;70.80;;;;;;4903055;29;20036;-70
2022/07/13 01:05:05;;;;;;;2.00;1.20;;;18.70;71.20;;;;;;4899525;29;20028;-70
2022/07/13 01:07:32;;;;;;;1.85;1.20;;;18.70;71.20;;;;;;4900279;29;20040;-70
2022/07/13 01:10:00;;;;;;;1.30;1.20;;;18.70;71.00;;;;;;4901458;29;20115;-69
2022/07/13 01:12:29;;;;;;;0.93;0.90;;;18.70;71.30;;;;;;4896867;29;20020;-70
2022/07/13 01:14:56;;;;;;;1.35;1.25;;;18.60;72.00;;;;;;4901662;29;20627;-69
2022/07/13 01:17:23;;;;;;;2.45;1.10;;;18.60;71.40;;;;;;4900045;29;20020;-70
2022/07/13 01:19:50;;;;;;;2.20;1.38;;;18.60;71.30;;;;;;4896147;29;20123;-69
2022/07/13 01:22:20;;;;;;;1.20;1.00;;;18.70;71.20;;;;;;4897006;29;20748;-70
2022/07/13 01:24:46;;;;;;;1.80;1.08;;;18.60;71.30;;;;;;4897480;29;20047;-69
2022/07/13 01:27:13;;;;;;;1.33;1.23;;;18.70;71.10;;;;;;4900138;29;20023;-69
2022/07/13 01:29:40;;;;;;;1.17;1.10;;;18.60;71.10;;;;;;4896282;29;20119;-69
2022/07/13 01:32:05;;;;;;;;;;;18.60;71.30;;;;;;4900317;29;20038;-69
2022/07/13 01:34:31;;;;;;;2.35;1.60;;;18.60;71.20;;;;;;4893264;29;19911;-70
2022/07/13 01:36:58;;;;;;;2.88;1.00;;;18.60;71.10;;;;;;4889063;29;20016;-70
2022/07/13 01:39:24;;;;;;;;;;;18.60;71.20;;;;;;4900654;29;20125;-69
2022/07/13 01:41:49;;;;;;;3.17;1.08;;;18.60;71.10;;;;;;4882464;29;20077;-70
2022/07/13 01:44:15;;;;;;;1.70;1.10;;;18.60;70.80;;;;;;4899484;29;20480;-69
2022/07/13 01:46:41;;;;;;;1.47;1.17;;;18.70;71.00;;;;;;4879956;29;20745;-70
2022/07/13 01:49:06;;;;;;;2.05;1.30;;;18.60;71.30;;;;;;4884179;29;20028;-70
2022/07/13 01:51:32;;;;;;;2.90;1.40;;;18.60;71.30;;;;;;4901714;29;20028;-70
2022/07/13 01:53:58;;;;;;;1.53;1.20;;;18.50;72.20;;;;;;4901923;29;20020;-70
2022/07/13 01:56:23;;;;;;;1.50;1.20;;;18.50;71.50;;;;;;4899848;29;20060;-70
2022/07/13 01:58:49;;;;;;;1.52;1.23;;;18.60;71.40;;;;;;4897613;29;20040;-70
2022/07/13 02:01:15;;;;;;;1.33;1.10;;;18.40;71.70;;;;;;4889533;29;20466;-70
2022/07/13 02:03:41;;;;;;;1.92;1.45;;;18.50;71.80;;;;;;4898885;29;21160;-70
2022/07/13 02:06:06;;;;;;;1.80;1.05;;;18.40;71.70;;;;;;4902978;29;20149;-70
2022/07/13 02:08:32;;;;;;;6.68;1.52;;;18.40;71.90;;;;;;4880355;29;20032;-70
2022/07/13 02:10:58;;;;;;;1.23;1.10;;;18.40;72.00;;;;;;4900017;29;20565;-70
2022/07/13 02:13:24;;;;;;;2.00;1.20;;;18.40;72.00;;;;;;4899131;29;20063;-70
2022/07/13 02:15:50;;;;;;;1.30;1.20;;;18.40;72.00;;;;;;4899348;29;20040;-70
2022/07/13 02:18:16;;;;;;;1.30;1.20;;;18.30;72.20;;;;;;4895102;29;20100;-70
2022/07/13 02:20:42;;;;;;;1.40;1.30;;;18.40;72.40;;;;;;4898742;29;20136;-70
2022/07/13 02:23:07;;;;;;;2.50;1.10;;;18.50;71.70;;;;;;4899513;29;20028;-70
2022/07/13 02:25:33;;;;;;;1.48;1.20;;;18.50;71.60;;;;;;4900120;29;20043;-70
2022/07/13 02:27:59;;;;;;;1.88;1.40;;;18.60;71.40;;;;;;4900903;29;20207;-70
2022/07/13 02:30:25;;;;;;;2.00;1.58;;;18.50;71.50;;;;;;4881700;29;20519;-69
2022/07/13 02:32:51;;;;;;;2.40;1.25;;;18.50;71.70;;;;;;4898946;29;20033;-70
2022/07/13 02:35:16;;;;;;;4.55;1.30;;;18.40;72.10;;;;;;4882044;29;20677;-70
2022/07/13 02:37:42;;;;;;;2.58;1.02;;;18.50;71.80;;;;;;4895766;29;20031;-70
2022/07/13 02:40:09;;;;;;;3.28;1.20;;;18.50;71.60;;;;;;4898944;29;20835;-70
2022/07/13 02:42:35;;;;;;;1.45;1.00;;;18.50;71.90;;;;;;4899397;29;20032;-70
2022/07/13 02:45:01;;;;;;;1.40;1.00;;;18.60;71.70;;;;;;4899884;29;20043;-70
2022/07/13 02:47:27;;;;;;;1.23;1.00;;;18.50;72.00;;;;;;4898458;29;20367;-70
2022/07/13 02:49:52;;;;;;;4.13;1.07;;;18.40;72.40;;;;;;4897933;29;20024;-70
2022/07/13 02:52:18;;;;;;;1.30;1.20;;;18.40;72.50;;;;;;4898315;29;20353;-70
2022/07/13 02:54:44;;;;;;;1.23;1.08;;;18.30;72.70;;;;;;4878554;29;20426;-70
2022/07/13 02:57:10;;;;;;;2.05;1.17;;;18.40;72.70;;;;;;4903058;29;20066;-70
2022/07/13 02:59:36;;;;;;;1.35;1.25;;;18.30;72.70;;;;;;4899185;29;20135;-70
2022/07/13 03:02:03;;;;;;;3.20;1.23;;;18.40;72.70;;;;;;4897562;29;20027;-69
2022/07/13 03:04:29;;;;;;;2.63;1.10;;;18.50;72.60;;;;;;4893792;29;20035;-70
2022/07/13 03:06:55;;;;;;;3.58;1.60;;;18.40;72.90;;;;;;4901343;29;20035;-70
2022/07/13 03:09:23;;;;;;;1.80;1.40;;;18.40;73.80;;;;;;4897214;29;20036;-70
2022/07/13 03:11:49;;;;;;;2.05;1.10;;;18.40;73.20;;;;;;4893987;29;20916;-70
2022/07/13 03:14:15;;;;;;;2.42;1.30;;;18.50;73.20;;;;;;4899254;29;20036;-70
2022/07/13 03:16:41;;;;;;;2.15;1.13;;;18.50;73.40;;;;;;4895495;29;20119;-70
2022/07/13 03:19:07;;;;;;;1.40;1.00;;;18.40;73.60;;;;;;4898234;29;20123;-70
2022/07/13 03:21:33;;;;;;;1.40;1.30;;;18.40;73.80;;;;;;4897466;29;20453;-70
2022/07/13 03:23:59;;;;;;;1.05;0.80;;;18.50;73.50;;;;;;4899087;29;20036;-70
2022/07/13 03:26:25;;;;;;;1.27;1.00;;;18.50;73.40;;;;;;4895631;29;20495;-70
2022/07/13 03:28:51;;;;;;;1.77;1.05;;;18.50;73.40;;;;;;4894729;29;20471;-70
2022/07/13 03:31:17;;;;;;;1.45;0.95;;;18.50;73.30;;;;;;4897802;29;20043;-70
2022/07/13 03:33:44;;;;;;;1.27;1.17;;;18.50;73.40;;;;;;4897849;29;20035;-70
2022/07/13 03:36:09;;;;;;;2.60;1.20;;;18.50;73.70;;;;;;4897391;29;20486;-70
2022/07/13 03:38:36;;;;;;;1.25;0.82;;;18.40;73.80;;;;;;4880277;29;20119;-70
2022/07/13 03:41:02;;;;;;;2.95;1.40;;;18.50;74.10;;;;;;4896249;29;20509;-71
2022/07/13 03:43:27;;;;;;;0.98;0.90;;;18.50;74.10;;;;;;4898502;29;20044;-71
2022/07/13 03:45:53;;;;;;;1.10;1.00;;;18.50;74.40;;;;;;4898299;29;20111;-70
2022/07/13 03:48:19;;;;;;;1.85;1.60;;;18.50;74.20;;;;;;4881135;29;20123;-70
2022/07/13 03:50:47;;;;;;;1.77;1.30;;;18.60;74.20;;;;;;4892792;29;20501;-71
2022/07/13 03:53:13;;;;;;;0.85;0.85;;;18.60;74.00;;;;;;4900675;29;20028;-70
2022/07/13 03:55:39;;;;;;;;;;;18.60;74.10;;;;;;4897731;29;20091;-70
2022/07/13 03:58:05;;;;;;;2.00;1.05;;;18.60;74.10;;;;;;4897136;29;20006;-71
2022/07/13 04:00:31;;;;;;;1.95;1.20;;;18.70;74.80;;;;;;4898482;29;20677;-68
2022/07/13 04:02:57;;;;;;;;;;;18.70;74.60;;;;;;4878967;29;20032;-68
2022/07/13 04:05:26;;;;;;;1.42;1.00;;;18.70;74.30;;;;;;4898361;29;20870;-68
2022/07/13 04:07:52;;;;;;;1.65;1.17;;;18.80;74.00;;;;;;4878757;29;20048;-68
2022/07/13 04:10:18;;;;;;;1.40;1.30;;;18.80;73.90;;;;;;4898776;29;20035;-68
2022/07/13 04:12:44;;;;;;;4.32;1.80;;;18.90;73.70;;;;;;4898888;29;20033;-70
2022/07/13 04:15:11;;;;;;;4.38;2.92;;;18.90;73.50;;;;;;4896033;29;20667;-70
2022/07/13 04:17:37;;;;;;;4.15;1.90;;;19.00;73.60;;;;;;4881184;29;20128;-68
2022/07/13 04:20:03;;;;;;;7.20;3.80;;;19.10;73.60;;;;;;4889862;29;20611;-68
2022/07/13 04:22:29;;;;;;;8.93;4.28;;;19.20;73.70;;;;;;4898060;29;20028;-69
2022/07/13 04:24:55;;;;;;;5.13;3.20;;;19.30;73.70;;;;;;4902084;29;20410;-69
2022/07/13 04:27:21;;;;;;;9.45;6.05;;;19.30;74.00;;;;;;4901661;29;20063;-69
2022/07/13 04:29:46;;;;;;;5.00;2.92;;;19.30;74.80;;;;;;4900838;29;20115;-69
2022/07/13 04:32:12;;;;;;;3.53;2.10;;;19.40;74.10;;;;;;4897987;29;20098;-69
2022/07/13 04:34:38;;;;;;;3.38;2.53;;;19.60;74.10;;;;;;4900974;29;20032;-69
2022/07/13 04:37:03;;;;;;;3.53;2.85;;;19.70;74.70;;;;;;4897751;29;20059;-68
2022/07/13 04:39:29;;;;;;;5.68;3.50;;;19.70;74.50;;;;;;4902392;29;20039;-69
2022/07/13 04:41:55;;;;;;;4.53;2.83;;;19.80;74.10;;;;;;4900775;29;20032;-71
2022/07/13 04:44:20;;;;;;;2.75;2.03;;;19.90;74.20;;;;;;4897784;29;20127;-71
2022/07/13 04:46:46;;;;;;;5.18;2.00;;;20.00;74.30;;;;;;4901344;29;20035;-71
2022/07/13 04:49:12;;;;;;;3.13;1.90;;;20.00;74.40;;;;;;4899782;29;20032;-71
2022/07/13 04:51:38;;;;;;;2.22;1.55;;;20.00;74.10;;;;;;4898811;29;20028;-71
2022/07/13 04:54:04;;;;;;;3.78;1.40;;;19.90;74.80;;;;;;4897307;29;20036;-72
2022/07/13 04:56:30;;;;;;;1.77;1.30;;;19.90;74.70;;;;;;4903255;29;20128;-71
2022/07/13 04:58:56;;;;;;;1.10;1.00;;;19.90;75.10;;;;;;4905250;29;20288;-72
2022/07/13 05:01:21;;;;;;;2.78;1.60;;;20.00;74.70;;;;;;4896452;29;20826;-71
2022/07/13 05:03:47;;;;;;;1.40;1.30;;;20.00;76.90;;;;;;4901958;29;20083;-71
2022/07/13 05:06:14;;;;;;;2.00;1.25;;;20.00;75.50;;;;;;4898076;29;20024;-71
2022/07/13 05:08:40;;;;;;;4.07;1.40;;;20.10;75.90;;;;;;4901233;29;20039;-71
2022/07/13 05:11:07;;;;;;;;;;;20.10;75.70;;;;;;4896880;29;20028;-71
2022/07/13 05:13:33;;;;;;;1.83;1.10;;;20.30;75.10;;;;;;4900583;29;19907;-71
2022/07/13 05:15:59;;;;;;;3.55;1.50;;;20.50;74.40;;;;;;4901481;29;20393;-70
2022/07/13 05:18:25;;;;;;;2.92;1.52;;;20.70;74.30;;;;;;4896848;29;20366;-71
2022/07/13 05:20:50;;;;;;;1.35;1.25;;;20.90;74.00;;;;;;4900236;29;20105;-70
2022/07/13 05:23:16;;;;;;;1.85;1.42;;;21.00;73.30;;;;;;4900824;29;20332;-71
2022/07/13 05:25:42;;;;;;;2.70;1.35;;;21.10;73.40;;;;;;4900817;29;20044;-71
2022/07/13 05:28:07;;;;;;;5.78;1.27;;;21.00;73.40;;;;;;4900048;29;20032;-70
2022/07/13 05:30:33;;;;;;;2.28;1.40;;;21.00;73.30;;;;;;4899756;29;20035;-71
2022/07/13 05:32:59;;;;;;;1.67;1.30;;;21.00;73.30;;;;;;4891628;29;20059;-72
2022/07/13 05:35:24;;;;;;;1.33;1.20;;;21.10;73.60;;;;;;4895064;29;20387;-71
2022/07/13 05:37:50;;;;;;;2.80;1.33;;;21.10;73.40;;;;;;4883121;29;20028;-71
2022/07/13 05:40:16;;;;;;;3.15;1.83;;;21.10;73.30;;;;;;4896027;29;20062;-71
2022/07/13 05:42:42;;;;;;;2.05;1.10;;;21.10;73.30;;;;;;4903716;29;20122;-71
2022/07/13 05:45:08;;;;;;;2.28;1.40;;;21.10;72.90;;;;;;4881546;29;20133;-72
2022/07/13 05:47:35;;;;;;;;;;;21.10;73.30;;;;;;4901883;29;20032;-71
2022/07/13 05:50:00;;;;;;;1.30;1.20;;;21.00;73.30;;;;;;4880252;29;20325;-72
2022/07/13 05:52:26;;;;;;;3.17;1.30;;;21.00;74.00;;;;;;4897171;29;20016;-72
2022/07/13 05:54:53;;;;;;;3.28;1.60;;;21.00;73.70;;;;;;4900835;29;20086;-72
2022/07/13 05:57:18;;;;;;;2.38;1.52;;;20.90;74.10;;;;;;4902056;29;20099;-68
2022/07/13 05:59:44;;;;;;;3.65;1.60;;;21.00;74.00;;;;;;4900991;29;20564;-68
2022/07/13 06:02:10;;;;;;;2.50;1.27;;;21.30;73.50;;;;;;4899093;29;20024;-69
2022/07/13 06:04:36;;;;;;;1.48;1.00;;;22.40;71.00;;;;;;4895817;29;20064;-69
2022/07/13 06:07:02;;;;;;;3.70;1.48;;;24.00;67.90;;;;;;4899677;29;20107;-68
2022/07/13 06:09:28;;;;;;;;;;;25.50;64.70;;;;;;4897086;29;20115;-69
2022/07/13 06:11:53;;;;;;;2.47;1.38;;;26.40;62.80;;;;;;4883073;29;19915;-69
2022/07/13 06:14:19;;;;;;;2.00;1.02;;;27.60;60.60;;;;;;4896842;29;20039;-72
2022/07/13 06:16:45;;;;;;;1.55;1.23;;;28.20;59.30;;;;;;4901399;29;20036;-72
2022/07/13 06:19:10;;;;;;;1.13;0.98;;;28.30;58.50;;;;;;4900892;29;20028;-72
2022/07/13 06:21:36;;;;;;;4.63;1.20;;;28.30;58.80;;;;;;4898799;29;20038;-72
2022/07/13 06:24:02;;;;;;;1.30;1.20;;;28.00;59.20;;;;;;4900313;29;20036;-72
2022/07/13 06:26:28;;;;;;;1.80;1.10;;;28.10;59.30;;;;;;4887706;29;20020;-72
2022/07/13 06:28:54;;;;;;;;;;;28.10;58.80;;;;;;4900504;29;20085;-72
2022/07/13 06:31:19;;;;;;;1.58;1.45;;;28.20;58.50;;;;;;4898167;29;19930;-72
2022/07/13 06:33:45;;;;;;;1.85;1.08;;;28.60;58.00;;;;;;4898696;29;20035;-72
2022/07/13 06:36:11;;;;;;;1.52;1.38;;;29.10;57.20;;;;;;4900696;29;20060;-72
2022/07/13 06:38:36;;;;;;;1.92;1.17;;;29.80;57.00;;;;;;4899549;29;20036;-73
2022/07/13 06:41:02;;;;;;;1.10;1.00;;;30.60;55.20;;;;;;4901634;29;20447;-72
2022/07/13 06:43:28;;;;;;;2.75;1.17;;;31.00;54.20;;;;;;4900400;29;20028;-72
2022/07/13 06:45:54;;;;;;;1.45;1.10;;;30.90;54.60;;;;;;4900103;29;20028;-72
2022/07/13 06:48:19;;;;;;;3.03;1.25;;;31.60;53.10;;;;;;4899810;29;20024;-72
2022/07/13 06:50:45;;;;;;;1.52;1.30;;;32.00;52.60;;;;;;4885737;29;20059;-72
2022/07/13 06:53:11;;;;;;;1.17;1.05;;;32.30;52.10;;;;;;4883218;29;20020;-72
2022/07/13 06:55:37;;;;;;;1.17;1.17;;;32.60;52.00;;;;;;4881370;29;20123;-73
2022/07/13 06:58:03;;;;;;;5.00;1.25;;;32.60;51.40;;;;;;4898429;29;20040;-73
2022/07/13 07:00:29;;;;;;;2.40;1.10;;;32.60;51.80;;;;;;4900073;29;20028;-73
2022/07/13 07:02:55;;;;;;;1.92;1.20;;;32.90;51.40;;;;;;4897101;29;20036;-73
2022/07/13 07:05:21;;;;;;;1.67;1.10;;;33.20;51.00;;;;;;4899960;29;20853;-73
2022/07/13 07:07:47;;;;;;;1.00;0.95;;;33.30;50.50;;;;;;4896828;29;20043;-73
2022/07/13 07:10:12;;;;;;;1.55;1.20;;;33.40;50.30;;;;;;4897723;29;20462;-73
2022/07/13 07:12:38;;;;;;;2.10;1.10;;;33.20;50.10;;;;;;4882319;29;20036;-73
2022/07/13 07:15:05;;;;;;;1.15;1.00;;;33.50;50.20;;;;;;4879386;29;20028;-73
2022/07/13 07:17:30;;;;;;;2.15;1.30;;;33.90;49.90;;;;;;4897790;29;20076;-73
2022/07/13 07:20:00;;;;;;;1.58;1.00;;;34.00;49.20;;;;;;4895473;29;20538;-73
2022/07/13 07:22:26;;;;;;;2.05;1.10;;;34.00;49.60;;;;;;4896197;29;20024;-73
2022/07/13 07:24:52;;;;;;;1.58;1.17;;;34.20;48.80;;;;;;4896945;29;20466;-73
2022/07/13 07:27:19;;;;;;;1.30;1.20;;;34.20;49.00;;;;;;4899388;29;20039;-72
2022/07/13 07:29:44;;;;;;;0.98;0.95;;;34.40;48.50;;;;;;4882980;29;20431;-73
2022/07/13 07:32:10;;;;;;;1.58;1.38;;;34.60;48.30;;;;;;4898770;29;20028;-72
2022/07/13 07:34:36;;;;;;;1.23;1.13;;;35.00;47.70;;;;;;4899433;29;20024;-73
2022/07/13 07:37:03;;;;;;;1.10;1.00;;;34.80;47.80;;;;;;4899806;29;20107;-73
2022/07/13 07:39:29;;;;;;;1.25;1.05;;;34.60;48.50;;;;;;4900362;29;20040;-73
2022/07/13 07:41:55;;;;;;;1.15;1.05;;;34.80;47.90;;;;;;4895158;29;20071;-72
2022/07/13 07:44:21;;;;;;;1.20;1.05;;;35.60;47.50;;;;;;4882643;29;20098;-73
2022/07/13 07:46:47;;;;;;;1.83;1.40;;;36.10;46.80;;;;;;4900623;29;20035;-73
2022/07/13 07:49:13;;;;;;;1.35;1.00;;;35.80;46.70;;;;;;4899197;29;20028;-73
2022/07/13 07:51:39;;;;;;;1.52;1.30;;;35.60;46.50;;;;;;4899548;29;20036;-73
2022/07/13 07:54:05;;;;;;;1.20;1.10;;;36.00;46.60;;;;;;4898658;29;20028;-73
2022/07/13 07:56:31;;;;;;;2.28;1.20;;;35.70;46.50;;;;;;4895567;29;20110;-73
2022/07/13 07:58:58;;;;;;;1.17;1.10;;;36.20;45.80;;;;;;4904075;29;20036;-72
2022/07/13 08:01:24;;;;;;;1.58;1.00;;;36.50;45.70;;;;;;4898231;29;20111;-73
2022/07/13 08:03:49;;;;;;;1.13;1.00;;;36.90;45.30;;;;;;4898489;29;20119;-73
2022/07/13 08:06:16;;;;;;;1.40;1.30;;;37.10;45.30;;;;;;4885651;29;20036;-73
2022/07/13 08:08:42;;;;;;;1.50;1.40;;;37.20;45.00;;;;;;4881206;29;20083;-73
2022/07/13 08:11:09;;;;;;;1.15;1.05;;;36.90;45.10;;;;;;4896152;29;20043;-73
2022/07/13 08:13:36;;;;;;;1.23;0.90;;;37.10;45.30;;;;;;4882590;29;20497;-73
2022/07/13 08:16:02;;;;;;;1.35;1.25;;;37.40;45.30;;;;;;4878650;29;20695;-73
2022/07/13 08:18:28;;;;;;;1.95;1.20;;;38.00;44.30;;;;;;4882525;29;20020;-73
2022/07/13 08:20:54;;;;;;;1.45;1.10;;;38.30;44.20;;;;;;4897210;29;20032;-73
2022/07/13 08:26:04;;;;;;;1.13;0.75;;;39.00;43.00;;;;;;4898607;29;20031;-72
2022/07/13 08:28:30;;;;;;;1.10;1.00;;;38.80;42.80;;;;;;4895787;29;20431;-72
2022/07/13 08:30:57;;;;;;;1.90;1.13;;;39.00;42.50;;;;;;4882082;29;20036;-73
2022/07/13 08:38:34;;;;;;;1.95;1.25;;;39.00;42.70;;;;;;4899577;29;20033;-73
2022/07/13 08:38:52;;;;;;;1.77;1.10;;;39.20;42.70;;;;;;4897803;29;20047;-73
2022/07/13 08:41:17;;;;;;;1.75;1.08;;;39.00;42.90;;;;;;4897503;29;20024;-73
2022/07/13 08:43:43;;;;;;;4.28;1.13;;;38.90;43.00;;;;;;4881017;29;20032;-73
2022/07/13 08:46:10;;;;;;;1.33;1.17;;;39.00;42.80;;;;;;4899133;29;20508;-72
2022/07/13 08:48:40;;;;;;;2.10;1.10;;;39.50;42.30;;;;;;4899881;29;20028;-73
2022/07/13 08:51:06;;;;;;;2.90;1.05;;;39.70;42.20;;;;;;4897350;29;20095;-73
2022/07/13 08:53:32;;;;;;;1.27;1.17;;;39.80;42.20;;;;;;4898551;29;20024;-73
2022/07/13 08:55:58;;;;;;;1.15;0.95;;;40.00;41.70;;;;;;4898622;29;20335;-73
2022/07/13 08:58:24;;;;;;;1.10;1.00;;;40.40;41.20;;;;;;4886720;29;20729;-73
2022/07/13 09:00:50;;;;;;;1.67;1.13;;;40.90;40.80;;;;;;4899609;29;20028;-73
2022/07/13 09:03:16;;;;;;;1.00;0.90;;;40.70;40.80;;;;;;4898538;29;20028;-73
2022/07/13 09:05:43;;;;;;;1.52;0.88;;;40.40;40.50;;;;;;4896647;29;20108;-73
2022/07/13 09:08:11;;;;;;;0.73;0.73;;;40.40;39.90;;;;;;4898226;29;20037;-73
2022/07/13 09:10:54;;;;;;;0.98;0.90;;;40.20;39.70;;;;;;4900307;29;20071;-73
2022/07/13 09:13:40;;;;;;;0.55;0.55;;;40.60;38.90;;;;;;4901711;29;20028;-73
2022/07/13 09:16:16;;;;;;;1.15;0.70;;;40.80;38.40;;;;;;4899068;29;20036;-73
2022/07/13 09:18:49;;;;;;;2.22;0.80;;;40.50;38.60;;;;;;4889184;29;20032;-73
2022/07/13 09:21:16;;;;;;;1.55;0.90;;;40.10;39.60;;;;;;4903706;29;20027;-73
2022/07/13 09:23:42;;;;;;;0.80;0.73;;;38.70;39.50;;;;;;4900821;29;20028;-73
2022/07/13 09:26:08;;;;;;;0.80;0.77;;;39.30;40.20;;;;;;4900646;29;20031;-73
2022/07/13 09:28:44;;;;;;;4.72;1.10;;;40.60;39.80;;;;;;4898694;29;20489;-73
2022/07/13 09:31:10;;;;;;;1.10;0.98;;;41.60;39.20;;;;;;4898881;29;20075;-73
2022/07/13 09:33:38;;;;;;;1.52;1.20;;;41.70;38.40;;;;;;4900596;29;20028;-73
2022/07/13 09:36:15;;;;;;;0.77;0.77;;;42.20;39.00;;;;;;4899480;29;20103;-73
2022/07/13 09:38:51;;;;;;;2.67;1.63;;;42.30;38.40;;;;;;4898892;29;20031;-72
2022/07/13 09:41:20;;;;;;;1.65;0.80;;;42.60;37.90;;;;;;4879573;29;20032;-73
2022/07/13 09:46:37;;;;;;;1.13;1.05;;;41.50;38.20;;;;;;4894879;29;20541;-73
2022/07/13 09:49:03;;;;;;;3.55;0.88;;;41.50;38.50;;;;;;4903126;29;20064;-72
2022/07/13 09:51:29;;;;;;;2.20;1.45;;;41.90;37.70;;;;;;4900991;29;20063;-73
2022/07/13 09:54:00;;;;;;;2.20;0.80;;;41.60;38.10;;;;;;4902830;29;20028;-72
2022/07/13 09:56:28;;;;;;;1.20;1.10;;;41.40;37.80;;;;;;4903334;29;20129;-72
2022/07/13 09:58:58;;;;;;;0.98;0.88;;;40.50;38.10;;;;;;4900631;29;20024;-72
2022/07/13 10:01:24;;;;;;;1.63;1.35;;;38.70;39.50;;;;;;4883799;29;20025;-72
2022/07/13 10:03:51;;;;;;;2.70;1.10;;;39.50;39.60;;;;;;4900374;29;20107;-72
2022/07/13 10:06:20;;;;;;;1.50;0.80;;;39.80;38.70;;;;;;4900565;29;20036;-73
2022/07/13 10:08:46;;;;;;;1.88;0.93;;;39.60;39.20;;;;;;4900220;29;20024;-72
2022/07/13 10:11:12;;;;;;;1.63;0.98;;;40.20;38.30;;;;;;4894415;29;20182;-73
2022/07/13 10:13:38;;;;;;;1.30;1.20;;;40.40;38.30;;;;;;4901037;29;20035;-72
2022/07/13 10:16:04;;;;;;;1.90;1.17;;;40.60;38.60;;;;;;4896844;29;20114;-72
2022/07/13 10:18:32;;;;;;;1.10;1.00;;;40.80;38.30;;;;;;4894920;29;20640;-72
2022/07/13 10:21:10;;;;;;;1.70;0.90;;;41.10;38.20;;;;;;4900483;29;20525;-73
2022/07/13 10:23:40;;;;;;;1.30;1.00;;;41.30;38.00;;;;;;4897436;29;20043;-72
2022/07/13 10:26:24;;;;;;;1.27;0.90;;;41.40;38.20;;;;;;4898841;29;20052;-72
2022/07/13 10:29:10;;;;;;;3.10;1.10;;;41.40;38.10;;;;;;4900202;29;20025;-72
2022/07/13 10:31:36;;;;;;;1.45;0.80;;;41.80;37.60;;;;;;4882075;29;20028;-72
2022/07/13 10:34:04;;;;;;;0.70;0.70;;;39.60;38.90;;;;;;4896587;29;20051;-73
2022/07/13 10:36:51;;;;;;;1.08;0.90;;;40.50;38.60;;;;;;4901124;29;20038;-72
2022/07/13 10:39:25;;;;;;;1.65;1.02;;;41.30;37.70;;;;;;4882161;29;20029;-72
2022/07/13 10:42:07;;;;;;;1.55;0.80;;;40.30;38.00;;;;;;4903442;29;20036;-72
2022/07/13 10:44:43;;;;;;;2.85;0.95;;;40.90;38.30;;;;;;4880698;29;20047;-72
2022/07/13 10:47:19;;;;;;;0.90;0.90;;;41.10;37.80;;;;;;4898750;29;20121;-72
2022/07/13 10:49:48;;;;;;;1.60;1.00;;;41.40;38.10;;;;;;4892428;29;20037;-73
2022/07/13 10:52:20;;;;;;;0.70;0.70;;;41.50;37.70;;;;;;4898398;29;20571;-72
2022/07/13 10:55:11;;;;;;;2.10;1.10;;;41.50;37.10;;;;;;4899349;29;20075;-72
2022/07/13 10:57:43;;;;;;;1.98;0.98;;;41.70;37.40;;;;;;4876553;29;20028;-72
2022/07/13 11:02:48;;;;;;;4.15;1.02;;;41.30;38.20;;;;;;4899928;29;20047;-72
2022/07/13 11:05:30;;;;;;;1.58;0.90;;;39.10;39.10;;;;;;4883211;29;20111;-72
2022/07/13 11:07:57;;;;;;;1.95;0.90;;;37.30;40.20;;;;;;4900457;29;20032;-72
2022/07/13 11:10:32;;;;;;;1.70;0.93;;;36.00;42.10;;;;;;4900448;29;20032;-72
2022/07/13 11:13:10;;;;;;;0.80;0.80;;;34.80;43.50;;;;;;4900667;29;20024;-72
2022/07/13 11:15:44;;;;;;;0.90;0.90;;;33.70;44.80;;;;;;4899366;29;20371;-72
2022/07/13 11:18:37;;;;;;;1.77;1.08;;;33.10;44.50;;;;;;4895667;29;20048;-72
2022/07/13 11:21:23;;;;;;;0.85;0.85;;;32.80;45.30;;;;;;4876652;29;20860;-72
2022/07/13 11:26:58;;;;;;;4.00;0.85;;;32.40;45.40;;;;;;4896863;29;20058;-72
2022/07/13 11:29:30;;;;;;;1.10;0.77;;;32.20;46.00;;;;;;4895798;29;20087;-72
2022/07/13 11:32:02;;;;;;;4.20;1.20;;;32.10;46.30;;;;;;4882539;29;20119;-72
2022/07/13 11:34:28;;;;;;;2.92;1.45;;;32.00;46.50;;;;;;4900388;29;20028;-75
2022/07/13 11:36:57;;;;;;;1.02;1.00;;;31.90;47.00;;;;;;4878755;29;20061;-72
2022/07/13 11:39:27;;;;;;;2.20;1.00;;;31.90;46.70;;;;;;4882155;29;20036;-72
2022/07/13 11:41:54;;;;;;;0.90;0.90;;;31.80;47.00;;;;;;4881820;29;20194;-72
2022/07/13 11:44:29;;;;;;;0.65;0.65;;;31.80;46.50;;;;;;4899500;29;20031;-72
2022/07/13 11:47:13;;;;;;;1.23;0.80;;;31.80;46.40;;;;;;4896919;29;20524;-74
2022/07/13 11:49:43;;;;;;;1.05;0.98;;;31.60;45.60;;;;;;4899261;29;20029;-74
2022/07/13 11:52:28;;;;;;;0.98;0.88;;;31.70;46.20;;;;;;4899026;29;20610;-72
2022/07/13 11:55:01;;;;;;;0.68;0.68;;;31.80;46.50;;;;;;4882343;29;20127;-72
2022/07/13 11:57:28;;;;;;;0.95;0.95;;;31.90;46.00;;;;;;4904363;29;20024;-72
2022/07/13 12:00:08;;;;;;;1.10;1.00;;;31.80;46.80;;;;;;4898824;29;20338;-72
2022/07/13 12:02:36;;;;;;;1.85;0.80;;;32.00;46.00;;;;;;4902716;29;20035;-74
2022/07/13 12:05:02;;;;;;;0.60;0.60;;;32.10;45.50;;;;;;4878478;29;20529;-74
2022/07/13 12:07:30;;;;;;;0.77;0.60;;;32.10;44.80;;;;;;4880194;29;20500;-72
2022/07/13 12:10:00;;;;;;;0.60;0.60;;;32.10;43.40;;;;;;4884992;29;20036;-71
2022/07/13 12:12:26;;;;;;;1.58;0.70;;;32.10;42.60;;;;;;4899087;29;20081;-72
2022/07/13 12:14:53;;;;;;;2.05;0.70;;;32.20;42.40;;;;;;4902738;29;20039;-72
2022/07/13 12:17:19;;;;;;;0.43;0.43;;;32.40;42.10;;;;;;4899026;29;20099;-71
2022/07/13 12:19:45;;;;;;;0.90;0.60;;;32.30;42.00;;;;;;4900506;29;20403;-74
2022/07/13 12:22:11;;;;;;;0.75;0.75;;;32.30;42.10;;;;;;4901447;29;20060;-74
2022/07/13 12:24:43;;;;;;;0.50;0.50;;;32.30;42.20;;;;;;4878240;29;20058;-71
2022/07/13 12:27:18;;;;;;;0.60;0.60;;;32.00;42.70;;;;;;4896338;29;20108;-71
2022/07/13 12:29:44;;;;;;;4.13;0.50;;;32.30;43.30;;;;;;4897771;29;20022;-71
2022/07/13 12:32:10;;;;;;;1.02;0.90;;;32.40;42.80;;;;;;4898671;29;20509;-71
2022/07/13 12:34:52;;;;;;;0.57;0.55;;;32.30;42.80;;;;;;4898575;29;20500;-71
2022/07/13 12:37:37;;;;;;;0.55;0.55;;;32.40;42.50;;;;;;4882952;29;20032;-71
2022/07/13 12:40:04;;;;;;;0.40;0.40;;;32.40;42.10;;;;;;4899829;29;20123;-73
2022/07/13 12:42:32;;;;;;;0.50;0.50;;;32.40;41.20;;;;;;4875765;29;20048;-73
2022/07/13 12:44:58;;;;;;;2.65;0.70;;;32.40;41.20;;;;;;4884816;29;20377;-73
2022/07/13 12:47:26;;;;;;;0.80;0.50;;;32.40;41.00;;;;;;4883007;29;20029;-73
2022/07/13 12:49:52;;;;;;;2.17;0.70;;;32.30;40.70;;;;;;4907078;29;20711;-73
2022/07/13 12:52:22;;;;;;;0.50;0.50;;;31.90;41.00;;;;;;4902921;29;20039;-73
2022/07/13 12:54:51;;;;;;;0.60;0.60;;;32.20;40.90;;;;;;4899471;29;20262;-73
2022/07/13 12:57:19;;;;;;;1.33;0.60;;;32.30;40.20;;;;;;4902014;29;20035;-73
2022/07/13 12:59:58;;;;;;;1.00;0.63;;;32.50;39.60;;;;;;4881902;29;20498;-73
2022/07/13 13:02:24;;;;;;;2.35;0.60;;;32.40;40.30;;;;;;4902479;29;21687;-73
2022/07/13 13:04:52;;;;;;;0.60;0.60;;;32.40;39.80;;;;;;4885455;29;21526;-73